createdAt,value
2022-12-20T00:27:48.974Z,94.57
2022-12-20T00:28:48.949Z,94.47
2022-12-20T00:29:48.946Z,94.47
2022-12-20T00:30:48.923Z,94.57
2022-12-20T00:31:49.800Z,94.68
2022-12-20T00:32:48.921Z,93.60
2022-12-20T00:33:50.016Z,94.16
2022-12-20T00:34:50.003Z,94.26
2022-12-20T00:35:49.982Z,94.47
2022-12-20T00:36:49.972Z,93.43
2022-12-20T00:37:49.983Z,93.74
2022-12-20T00:38:50.970Z,94.26
2022-12-20T00:39:51.741Z,93.74
2022-12-20T00:40:50.946Z,94.99
2022-12-20T00:41:49.944Z,94.68
2022-12-20T00:42:49.943Z,94.37
2022-12-20T00:43:49.937Z,94.47
2022-12-20T00:44:49.911Z,94.57
2022-12-20T00:45:51.745Z,94.89
2022-12-20T00:46:49.936Z,94.47
2022-12-20T00:47:49.894Z,94.68
2022-12-20T00:48:49.885Z,94.26
2022-12-20T00:49:49.872Z,94.26
2022-12-20T00:50:49.867Z,95.20
2022-12-20T00:51:49.875Z,94.57
2022-12-20T00:52:49.852Z,94.47
2022-12-20T00:53:49.847Z,94.99
2022-12-20T00:54:49.833Z,94.68
2022-12-20T00:55:49.834Z,94.99
2022-12-20T00:56:49.817Z,94.47
2022-12-20T00:57:49.811Z,94.68
2022-12-20T00:58:49.826Z,95.40
2022-12-20T00:59:49.820Z,94.99
2022-12-20T01:00:55.791Z,95.05
2022-12-20T01:01:52.618Z,94.57
2022-12-20T01:02:50.702Z,94.68
2022-12-20T01:03:50.512Z,95.20
2022-12-20T01:04:49.757Z,94.64
2022-12-20T01:05:49.752Z,94.68
2022-12-20T01:06:49.739Z,94.22
2022-12-20T01:07:49.742Z,94.12
2022-12-20T01:08:49.773Z,94.43
2022-12-20T01:09:49.720Z,94.43
2022-12-20T01:10:49.712Z,94.06
2022-12-20T01:11:49.717Z,94.53
2022-12-20T01:12:49.711Z,94.22
2022-12-20T01:13:50.365Z,94.01
2022-12-20T01:14:49.674Z,94.43
2022-12-20T01:15:50.723Z,94.53
2022-12-20T01:16:49.720Z,94.22
2022-12-20T01:17:49.663Z,94.84
2022-12-20T01:18:49.651Z,93.54
2022-12-20T01:19:49.637Z,93.80
2022-12-20T01:20:49.640Z,94.64
2022-12-20T01:21:49.638Z,94.43
2022-12-20T01:22:49.635Z,94.43
2022-12-20T01:23:49.619Z,94.32
2022-12-20T01:24:49.608Z,94.53
2022-12-20T01:25:49.607Z,94.43
2022-12-20T01:26:49.625Z,94.32
2022-12-20T01:27:49.583Z,94.01
2022-12-20T01:28:49.567Z,94.32
2022-12-20T01:29:49.567Z,94.12
2022-12-20T01:30:49.584Z,94.38
2022-12-20T01:31:49.633Z,94.95
2022-12-20T01:32:49.536Z,94.01
2022-12-20T01:33:49.530Z,93.70
2022-12-20T01:34:50.250Z,94.95
2022-12-20T01:35:49.556Z,94.59
2022-12-20T01:36:49.558Z,94.32
2022-12-20T01:37:49.514Z,94.18
2022-12-20T01:38:49.495Z,94.07
2022-12-20T01:39:49.498Z,95.01
2022-12-20T01:40:49.475Z,94.80
2022-12-20T01:41:49.492Z,93.93
2022-12-20T01:42:49.459Z,93.72
2022-12-20T01:43:49.453Z,93.45
2022-12-20T01:44:49.465Z,93.41
2022-12-20T01:45:49.491Z,93.10
2022-12-20T01:46:49.429Z,92.47
2022-12-20T01:47:50.290Z,92.78
2022-12-20T01:48:49.442Z,92.78
2022-12-20T01:49:49.410Z,92.99
2022-12-20T01:50:49.412Z,93.20
2022-12-20T01:51:49.404Z,93.62
2022-12-20T01:52:49.397Z,93.51
2022-12-20T01:53:49.376Z,92.78
2022-12-20T01:54:49.390Z,92.53
2022-12-20T01:55:53.340Z,92.43
2022-12-20T01:56:49.367Z,92.22
2022-12-20T01:57:49.345Z,91.95
2022-12-20T01:58:49.353Z,91.95
2022-12-20T01:59:50.335Z,92.99
2022-12-20T02:00:49.381Z,92.78
2022-12-20T02:01:49.953Z,93.30
2022-12-20T02:02:49.516Z,92.99
2022-12-20T02:03:49.310Z,93.20
2022-12-20T02:04:49.306Z,93.62
2022-12-20T02:05:49.285Z,93.82
2022-12-20T02:06:49.306Z,94.03
2022-12-20T02:07:49.277Z,94.24
2022-12-20T02:08:49.253Z,93.68
2022-12-20T02:09:49.258Z,92.94
2022-12-20T02:10:49.252Z,93.05
2022-12-20T02:11:49.242Z,92.78
2022-12-20T02:12:49.233Z,93.05
2022-12-20T02:13:49.765Z,93.16
2022-12-20T02:14:49.267Z,93.26
2022-12-20T02:15:49.210Z,93.57
2022-12-20T02:16:49.271Z,93.88
2022-12-20T02:17:50.840Z,93.51
2022-12-20T02:18:49.203Z,93.78
2022-12-20T02:19:50.179Z,93.68
2022-12-20T02:20:49.182Z,93.51
2022-12-20T02:21:49.166Z,93.37
2022-12-20T02:22:49.155Z,93.47
2022-12-20T02:23:49.846Z,93.88
2022-12-20T02:24:49.769Z,93.99
2022-12-20T02:25:50.759Z,94.09
2022-12-20T02:26:49.147Z,93.57
2022-12-20T02:27:49.863Z,93.68
2022-12-20T02:28:49.119Z,93.26
2022-12-20T02:29:49.099Z,93.47
2022-12-20T02:30:49.094Z,94.15
2022-12-20T02:31:49.141Z,93.84
2022-12-20T02:32:49.078Z,94.09
2022-12-20T02:33:50.874Z,93.95
2022-12-20T02:34:49.062Z,94.36
2022-12-20T02:35:49.057Z,94.78
2022-12-20T02:36:49.763Z,93.53
2022-12-20T02:37:49.847Z,93.12
2022-12-20T02:38:49.038Z,93.84
2022-12-20T02:39:49.026Z,94.21
2022-12-20T02:40:49.764Z,94.73
2022-12-20T02:41:49.842Z,94.32
2022-12-20T02:42:49.004Z,94.11
2022-12-20T02:43:50.836Z,93.65
2022-12-20T02:44:49.005Z,93.49
2022-12-20T02:45:48.995Z,93.65
2022-12-20T02:46:49.846Z,93.65
2022-12-20T02:47:48.964Z,93.13
2022-12-20T02:48:48.944Z,92.51
2022-12-20T02:49:48.941Z,92.30
2022-12-20T02:50:48.933Z,92.61
2022-12-20T02:51:48.962Z,92.82
2022-12-20T02:52:48.913Z,93.54
2022-12-20T02:53:48.905Z,93.44
2022-12-20T02:54:48.908Z,93.44
2022-12-20T02:55:48.901Z,93.33
2022-12-20T02:56:48.912Z,92.86
2022-12-20T02:57:50.358Z,92.76
2022-12-20T02:58:48.875Z,93.18
2022-12-20T02:59:48.869Z,93.53
2022-12-20T03:00:48.855Z,93.53
2022-12-20T03:01:49.896Z,93.43
2022-12-20T03:02:50.950Z,93.49
2022-12-20T03:03:50.488Z,93.07
2022-12-20T03:04:48.826Z,93.22
2022-12-20T03:05:48.815Z,93.12
2022-12-20T03:06:48.873Z,93.32
2022-12-20T03:07:49.336Z,94.88
2022-12-20T03:08:50.339Z,94.36
2022-12-20T03:09:48.789Z,94.15
2022-12-20T03:10:48.761Z,94.78
2022-12-20T03:11:50.283Z,94.46
2022-12-20T03:12:48.777Z,94.05
2022-12-20T03:13:49.869Z,93.95
2022-12-20T03:14:48.736Z,94.78
2022-12-20T03:15:50.362Z,94.78
2022-12-20T03:16:48.772Z,94.78
2022-12-20T03:17:48.717Z,93.84
2022-12-20T03:18:49.351Z,94.26
2022-12-20T03:19:49.725Z,94.05
2022-12-20T03:20:48.702Z,94.57
2022-12-20T03:21:48.667Z,94.46
2022-12-20T03:22:48.788Z,94.30
2022-12-20T03:23:48.707Z,94.51
2022-12-20T03:24:48.658Z,94.20
2022-12-20T03:25:49.283Z,94.51
2022-12-20T03:26:49.664Z,93.99
2022-12-20T03:27:48.654Z,94.09
2022-12-20T03:28:49.386Z,94.09
2022-12-20T03:29:48.616Z,94.67
2022-12-20T03:30:48.719Z,94.40
2022-12-20T03:31:48.614Z,93.88
2022-12-20T03:32:49.826Z,94.40
2022-12-20T03:33:48.585Z,94.09
2022-12-20T03:34:48.578Z,94.30
2022-12-20T03:35:48.584Z,94.82
2022-12-20T03:36:48.571Z,93.84
2022-12-20T03:37:49.361Z,93.47
2022-12-20T03:38:48.875Z,94.61
2022-12-20T03:39:49.557Z,94.51
2022-12-20T03:40:48.547Z,95.13
2022-12-20T03:41:48.564Z,94.51
2022-12-20T03:42:49.368Z,94.24
2022-12-20T03:43:49.370Z,93.93
2022-12-20T03:44:48.568Z,93.62
2022-12-20T03:45:49.628Z,93.30
2022-12-20T03:46:49.344Z,92.99
2022-12-20T03:47:49.280Z,93.55
2022-12-20T03:48:48.500Z,93.24
2022-12-20T03:49:48.476Z,93.66
2022-12-20T03:50:48.452Z,94.28
2022-12-20T03:51:48.447Z,94.38
2022-12-20T03:52:48.462Z,94.18
2022-12-20T03:53:52.275Z,94.49
2022-12-20T03:54:49.369Z,94.59
2022-12-20T03:55:50.295Z,95.53
2022-12-20T03:56:48.409Z,95.84
2022-12-20T03:57:48.402Z,96.04
2022-12-20T03:58:48.406Z,97.30
2022-12-20T03:59:48.403Z,97.30
2022-12-20T04:00:48.378Z,97.50
2022-12-20T04:01:48.516Z,96.36
2022-12-20T04:02:48.522Z,96.36
2022-12-20T04:03:49.496Z,96.15
2022-12-20T04:04:48.357Z,95.84
2022-12-20T04:05:48.333Z,95.67
2022-12-20T04:06:48.383Z,96.41
2022-12-20T04:07:48.321Z,97.13
2022-12-20T04:08:48.310Z,97.24
2022-12-20T04:09:48.306Z,97.44
2022-12-20T04:10:49.302Z,97.13
2022-12-20T04:11:48.290Z,97.75
2022-12-20T04:12:48.286Z,97.24
2022-12-20T04:13:48.272Z,97.24
2022-12-20T04:14:48.270Z,97.24
2022-12-20T04:15:48.815Z,97.75
2022-12-20T04:16:48.264Z,97.65
2022-12-20T04:17:48.251Z,98.07
2022-12-20T04:18:48.239Z,97.75
2022-12-20T04:19:48.259Z,98.27
2022-12-20T04:20:48.217Z,98.27
2022-12-20T04:21:48.219Z,98.17
2022-12-20T04:22:48.211Z,98.07
2022-12-20T04:23:48.311Z,98.27
2022-12-20T04:24:48.201Z,98.43
2022-12-20T04:25:48.204Z,98.27
2022-12-20T04:26:48.186Z,98.27
2022-12-20T04:27:48.202Z,97.65
2022-12-20T04:28:48.164Z,97.96
2022-12-20T04:29:49.860Z,98.07
2022-12-20T04:30:48.185Z,98.07
2022-12-20T04:31:49.218Z,98.74
2022-12-20T04:32:48.125Z,99.21
2022-12-20T04:33:48.139Z,99.11
2022-12-20T04:34:48.111Z,98.90
2022-12-20T04:35:48.105Z,98.48
2022-12-20T04:36:48.103Z,98.65
2022-12-20T04:37:48.102Z,97.81
2022-12-20T04:38:48.096Z,97.81
2022-12-20T04:39:48.077Z,97.86
2022-12-20T04:40:48.073Z,97.50
2022-12-20T04:41:48.089Z,96.78
2022-12-20T04:42:48.052Z,97.61
2022-12-20T04:43:48.082Z,97.50
2022-12-20T04:44:48.042Z,97.30
2022-12-20T04:45:48.032Z,97.61
2022-12-20T04:46:48.872Z,96.62
2022-12-20T04:47:48.008Z,95.42
2022-12-20T04:48:57.988Z,95.53
2022-12-20T04:49:52.783Z,96.52
2022-12-20T04:50:47.993Z,96.78
2022-12-20T04:51:47.991Z,97.77
2022-12-20T04:52:48.502Z,97.56
2022-12-20T04:53:48.073Z,96.73
2022-12-20T04:54:47.959Z,95.79
2022-12-20T04:55:47.960Z,95.48
2022-12-20T04:56:47.935Z,95.73
2022-12-20T04:57:47.926Z,95.90
2022-12-20T04:58:47.926Z,95.48
2022-12-20T04:59:47.919Z,95.48
2022-12-20T05:00:47.926Z,95.73
2022-12-20T05:01:48.110Z,95.84
2022-12-20T05:02:48.096Z,95.84
2022-12-20T05:03:47.956Z,95.84
2022-12-20T05:04:47.877Z,94.76
2022-12-20T05:05:47.861Z,94.18
2022-12-20T05:06:47.856Z,94.28
2022-12-20T05:07:47.864Z,94.38
2022-12-20T05:08:47.842Z,93.97
2022-12-20T05:09:47.851Z,94.38
2022-12-20T05:10:47.829Z,94.49
2022-12-20T05:11:47.815Z,94.80
2022-12-20T05:12:47.819Z,94.07
2022-12-20T05:13:48.360Z,94.90
2022-12-20T05:14:47.793Z,95.21
2022-12-20T05:15:47.851Z,96.25
2022-12-20T05:16:47.782Z,96.57
2022-12-20T05:17:50.805Z,96.57
2022-12-20T05:18:49.527Z,97.77
2022-12-20T05:19:50.367Z,97.56
2022-12-20T05:20:48.888Z,97.10
2022-12-20T05:21:47.742Z,96.69
2022-12-20T05:22:47.729Z,96.54
2022-12-20T05:23:53.295Z,96.54
2022-12-20T05:24:48.710Z,97.47
2022-12-20T05:25:47.701Z,97.16
2022-12-20T05:26:47.699Z,96.23
2022-12-20T05:27:47.695Z,95.98
2022-12-20T05:28:47.699Z,95.67
2022-12-20T05:29:47.682Z,95.41
2022-12-20T05:30:47.666Z,95.41
2022-12-20T05:31:47.907Z,95.00
2022-12-20T05:32:47.650Z,94.48
2022-12-20T05:33:47.643Z,94.48
2022-12-20T05:34:47.641Z,94.79
2022-12-20T05:36:53.913Z,94.17
2022-12-20T05:37:54.776Z,94.27
2022-12-20T05:39:01.922Z,93.91
2022-12-20T05:39:55.284Z,93.40
2022-12-20T05:40:53.882Z,93.91
2022-12-20T05:41:53.875Z,94.02
2022-12-20T05:42:53.877Z,94.23
2022-12-20T05:43:53.861Z,94.74
2022-12-20T05:44:53.844Z,93.87
2022-12-20T05:45:54.755Z,93.87
2022-12-20T05:46:53.972Z,94.49
2022-12-20T05:47:54.921Z,94.29
2022-12-20T05:48:54.903Z,94.08
2022-12-20T05:49:54.965Z,93.73
2022-12-20T05:50:54.977Z,93.41
2022-12-20T05:51:55.772Z,93.10
2022-12-20T05:52:54.880Z,92.69
2022-12-20T05:53:55.773Z,92.38
2022-12-20T05:54:54.882Z,92.34
2022-12-20T05:55:54.877Z,92.38
2022-12-20T05:56:54.851Z,91.82
2022-12-20T05:57:59.266Z,91.93
2022-12-20T05:58:54.848Z,92.34
2022-12-20T05:59:55.826Z,92.03
2022-12-20T06:00:55.826Z,92.24
2022-12-20T06:01:56.008Z,92.13
2022-12-20T06:02:55.551Z,91.82
2022-12-20T06:03:54.877Z,91.93
2022-12-20T06:04:54.785Z,91.57
2022-12-20T06:05:55.364Z,91.72
2022-12-20T06:06:56.358Z,91.16
2022-12-20T06:07:54.762Z,91.41
2022-12-20T06:08:54.750Z,91.36
2022-12-20T06:09:54.755Z,91.36
2022-12-20T21:26:46.402Z,98.61
2022-12-20T21:27:46.360Z,98.19
2022-12-20T21:28:46.358Z,98.40
2022-12-20T21:29:46.348Z,97.78
2022-12-20T21:30:46.339Z,98.50
2022-12-20T21:31:46.432Z,98.50
2022-12-20T21:32:46.328Z,99.23
2022-12-20T21:33:46.312Z,98.96
2022-12-20T21:34:46.307Z,99.17
2022-12-20T21:35:53.586Z,99.58
2022-12-20T21:36:47.293Z,99.58
2022-12-20T21:37:46.280Z,99.07
2022-12-20T21:38:46.286Z,99.69
2022-12-20T21:39:46.269Z,99.69
2022-12-20T21:40:47.361Z,99.58
2022-12-20T21:41:47.359Z,99.48
2022-12-20T21:42:47.367Z,99.99
2022-12-20T21:43:47.337Z,99.99
2022-12-20T21:44:47.322Z,99.99
2022-12-20T21:45:47.383Z,99.90
2022-12-20T21:46:47.415Z,99.99
2022-12-20T21:47:47.305Z,99.99
2022-12-20T21:48:47.304Z,99.99
2022-12-20T21:49:47.311Z,99.99
2022-12-20T21:50:47.271Z,99.95
2022-12-20T21:51:47.279Z,99.99
2022-12-20T21:52:47.261Z,99.99
2022-12-20T21:53:47.272Z,99.99
2022-12-20T21:54:47.253Z,99.99
2022-12-20T21:55:47.235Z,99.99
2022-12-20T21:56:47.253Z,99.99
2022-12-20T21:57:47.211Z,99.99
2022-12-20T21:58:47.217Z,99.99
2022-12-20T21:59:47.209Z,99.99
2022-12-20T22:00:52.606Z,99.99
2022-12-20T22:01:49.315Z,99.99
2022-12-20T22:02:48.263Z,99.99
2022-12-20T22:03:47.203Z,99.99
2022-12-20T22:04:47.172Z,99.99
2022-12-20T22:05:47.195Z,99.99
2022-12-20T22:06:51.044Z,99.99
2022-12-20T22:07:47.141Z,99.99
2022-12-20T22:08:47.134Z,99.99
2022-12-20T22:09:47.978Z,99.99
2022-12-20T22:10:47.124Z,99.99
2022-12-20T22:11:47.124Z,99.99
2022-12-20T22:12:47.092Z,99.99
2022-12-20T22:13:47.114Z,99.99
2022-12-20T22:14:47.094Z,99.99
2022-12-20T22:15:47.090Z,99.99
2022-12-20T22:16:47.120Z,99.99
2022-12-20T22:17:47.065Z,99.99
2022-12-20T22:18:47.056Z,99.99
2022-12-20T22:19:47.057Z,99.99
2022-12-20T22:20:47.042Z,99.99
2022-12-20T22:21:49.777Z,99.99
2022-12-20T22:22:48.019Z,99.99
2022-12-20T22:23:47.030Z,99.99
2022-12-20T22:24:47.028Z,99.99
2022-12-20T22:25:46.993Z,99.99
2022-12-20T22:26:47.004Z,99.99
2022-12-20T22:27:46.976Z,99.99
2022-12-20T22:28:47.069Z,99.99
2022-12-20T22:29:46.963Z,99.99
2022-12-20T22:30:46.951Z,99.99
2022-12-20T22:31:47.044Z,99.99
2022-12-20T22:32:46.951Z,99.99
2022-12-20T22:33:46.945Z,99.99
2022-12-20T22:34:46.914Z,99.99
2022-12-20T22:35:46.918Z,99.99
2022-12-20T22:36:46.904Z,99.99
2022-12-20T22:37:46.886Z,99.99
2022-12-20T22:38:46.945Z,99.99
2022-12-20T22:39:46.885Z,99.99
2022-12-20T22:40:46.881Z,99.76
2022-12-20T22:41:46.869Z,99.99
2022-12-20T22:42:46.854Z,99.99
2022-12-20T22:43:46.840Z,99.86
2022-12-20T22:44:46.842Z,99.82
2022-12-20T22:45:46.890Z,99.92
2022-12-20T22:46:46.847Z,99.61
2022-12-20T22:47:46.817Z,99.71
2022-12-20T22:48:46.803Z,99.51
2022-12-20T22:49:46.817Z,99.92
2022-12-20T22:50:46.792Z,99.40
2022-12-20T22:51:55.163Z,99.09
2022-12-20T22:52:48.800Z,98.88
2022-12-20T22:53:46.763Z,99.40
2022-12-20T22:54:46.771Z,99.30
2022-12-20T22:55:46.739Z,98.88
2022-12-20T22:56:46.745Z,98.84
2022-12-20T22:57:48.559Z,98.88
2022-12-20T22:58:48.606Z,98.78
2022-12-20T22:59:46.736Z,98.57
2022-12-20T23:00:46.696Z,98.63
2022-12-20T23:01:47.249Z,98.32
2022-12-20T23:02:46.959Z,98.11
2022-12-20T23:03:46.706Z,98.11
2022-12-20T23:04:46.669Z,98.11
2022-12-20T23:05:46.654Z,97.91
2022-12-20T23:06:46.658Z,97.71
2022-12-20T23:07:46.736Z,98.01
2022-12-20T23:08:47.624Z,97.96
2022-12-20T23:09:46.648Z,97.50
2022-12-20T23:10:46.626Z,97.39
2022-12-20T23:11:46.623Z,97.50
2022-12-20T23:12:46.630Z,97.50
2022-12-20T23:13:46.600Z,98.11
2022-12-20T23:14:46.599Z,97.91
2022-12-20T23:15:46.579Z,97.71
2022-12-20T23:16:46.643Z,97.60
2022-12-20T23:17:46.581Z,97.71
2022-12-20T23:18:46.591Z,97.64
2022-12-20T23:19:46.549Z,97.71
2022-12-20T23:20:46.536Z,97.60
2022-12-20T23:21:46.528Z,97.71
2022-12-20T23:22:46.515Z,97.39
2022-12-20T23:23:50.939Z,97.91
2022-12-20T23:24:48.509Z,97.91
2022-12-20T23:25:46.546Z,98.11
2022-12-20T23:26:46.500Z,98.22
2022-12-20T23:27:47.041Z,97.91
2022-12-20T23:28:46.474Z,97.91
2022-12-20T23:29:46.485Z,97.91
2022-12-20T23:30:46.493Z,97.91
2022-12-20T23:31:48.607Z,98.01
2022-12-20T23:32:46.518Z,98.11
2022-12-20T23:33:48.052Z,98.01
2022-12-20T23:34:46.444Z,97.91
2022-12-20T23:35:46.421Z,97.71
2022-12-20T23:36:48.523Z,97.91
2022-12-20T23:37:46.400Z,97.91
2022-12-20T23:38:47.041Z,97.81
2022-12-20T23:39:46.383Z,98.11
2022-12-20T23:40:46.395Z,98.01
2022-12-20T23:41:46.398Z,98.01
2022-12-20T23:42:46.380Z,98.01
2022-12-20T23:43:46.360Z,98.01
2022-12-20T23:44:46.362Z,98.11
2022-12-20T23:45:46.423Z,98.53
2022-12-20T23:46:46.336Z,99.09
2022-12-20T23:47:46.331Z,99.30
2022-12-20T23:48:47.040Z,99.09
2022-12-20T23:49:46.305Z,99.19
2022-12-20T23:50:46.300Z,99.40
2022-12-20T23:51:46.284Z,99.30
2022-12-20T23:52:46.291Z,99.61
2022-12-20T23:53:46.277Z,99.51
2022-12-20T23:54:47.189Z,99.66
2022-12-20T23:55:46.255Z,99.99
2022-12-20T23:56:46.262Z,99.56
2022-12-20T23:57:46.256Z,99.46
2022-12-20T23:58:46.259Z,99.15
2022-12-20T23:59:46.229Z,99.35
